Airfield :
LOGIN :

Register | Disclaimer

   EN    FR    IT 

 










Legend :    VFR   Marginal VFR   IFR   Intensive IFR   Very Intensive IFR
Visi :
Ceiling :
>= 8 km
>= 3000ft
5 to 8 km
1000 to 3000 ft
1500m to 5 km
500 to 1000 ft
800 to 1500m
200 to 500 ft
< 800m
< 200 ft
Symbols :   Thunderstorms  Fog  Heavy snow  Heavy precipitations  Wind > 20 kt
SIGMETs :     Misc.  Thunderstorms  Icing  Turbulence  Mountain Waves  Volcanic Ashes







- Airport Elevation : 33 ft
- IATA code : MHZ


EGUN - RAF Mildenhall

CURRENT METAR :
  • 160856Z 21005KT 9999 CLR 04/04 A2970 RMK AO2A SLP061 T00410041 52013 .

EXPIRED METARs :
  • 160805Z 21007KT 9999 CLR 04/04 A2969 RMK SLP058 $
  • 160656Z AUTO 21009KT 9999 CLR 05/05 A2966 RMK AO2 SLP047 T00460046 $

TAF TAF EGUN
Valid from the 16 at 04:00 until the 17 at 10:00 UTC


160410Z 1604/1710 22012KT 9999 SKC QNH2963INS
BECMG 1614/1615 17012KT 9999 SCT015 QNH2972INS
BECMG 1621/1622 17010G15KT 8000 -RA OVC007 QNH2973INS
BECMG 1702/1703 26010G15KT 9999 NSW BKN010 QNH2976INS TX07/1612Z TN04/1708Z
No reported NOTAMs for that airfield.
1 SIGMET reported for the London FIR (EGTT) :
 
Severe icing
EGTT SIGMET 03 VALID 160600/161000 EGRR
EGTT LONDON FIR SEV ICE FCST NE OF LINE N5428 E00428 - N5500 E00412 FL030/080 MOV NE 15KT WKN=



MET'MAP, your aeronautical weather chart ! - Copyright ORBIFLY December 2007 - Disclaimer

ORBIFLY MET'MAP TEAM :

Programming & Development : Alexandra Zaïnal
Concept & Development : Baudouin d'Aumeries
Co-Development & Prog : Marc-Olivier Méhu
Technical & hardware support : Manuel Goepfert

Contact : metmap@orbifly.com




SOURCES & CREDITS :

   NOAA